CheckWX is a tool to help pilots better visualize weather data.  It is not intended as a substitute for an official pre-flight weather briefing.

06:14:40 UTC

WBKL TAF
Labuan Airport
Labuan, Malaysia
TAF WBKL 220500Z 2206/2306 01005KT 9999 FEW014 BKN300

Apr-22@
06:00 UTC

Apr-22 @ 06:00 UTC

Apr-23@
06:00 UTC

Apr-23 @ 06:00 UTC

TAF WBKL 220500Z 2206/2306 01005KT 9999 FEW014 BKN300
Wind
  • 010° at 5 KTS
Cloud Levels
  • Few at 1,400' AGL
  • Broken at 30,000' AGL